Time;durP1;ratioP1;P1;durP2;ratioP2;P2;SDS_P1;SDS_P2;PMS_P1;PMS_P2;Temp;Humidity;BMP_temperature;BMP_pressure;BME280_temperature;BME280_humidity;BME280_pressure;Samples;Min_cycle;Max_cycle;Signal;HPM_P1;HPM_P2
2023/01/04 00:01:15;;;;;;;45.72;28.65;;;;;;;12.29;68.71;101649.91;4936482;28;20027;-85
2023/01/04 00:03:40;;;;;;;53.58;30.33;;;;;;;12.31;68.41;101648.81;4954040;28;20035;-83
2023/01/04 00:06:08;;;;;;;45.35;27.55;;;;;;;12.26;68.80;101650.97;4955110;28;20031;-85
2023/01/04 00:08:34;;;;;;;50.55;29.17;;;;;;;12.21;69.15;101649.56;4953853;28;20027;-86
2023/01/04 00:11:05;;;;;;;45.35;28.60;;;;;;;12.27;69.37;101651.81;4953733;28;20043;-87
2023/01/04 00:13:31;;;;;;;49.50;28.83;;;;;;;12.28;68.70;101650.88;4936597;28;20119;-86
2023/01/04 00:15:58;;;;;;;50.30;28.90;;;;;;;12.30;68.83;101649.78;4953382;28;20055;-86
2023/01/04 00:18:23;;;;;;;46.50;28.80;;;;;;;12.31;68.95;101664.13;4957518;28;20502;-85
2023/01/04 00:20:48;;;;;;;46.28;27.40;;;;;;;12.31;69.04;101666.81;4953151;28;20038;-86
2023/01/04 00:23:14;;;;;;;47.08;26.65;;;;;;;12.26;68.98;101655.53;4967541;28;20054;-86
2023/01/04 00:25:40;;;;;;;49.67;29.23;;;;;;;12.33;68.85;101671.13;4953454;28;20596;-86
2023/01/04 00:28:05;;;;;;;59.15;29.95;;;;;;;12.28;68.97;101669.75;4953271;28;20494;-86
2023/01/04 00:30:31;;;;;;;51.00;30.42;;;;;;;12.24;68.59;101670.94;4953194;28;20032;-86
2023/01/04 00:32:57;;;;;;;46.25;28.15;;;;;;;12.22;68.33;101675.59;4952814;28;20058;-86
2023/01/04 00:35:23;;;;;;;47.67;27.90;;;;;;;12.20;68.71;101672.16;4952679;28;20090;-85
2023/01/04 00:37:48;;;;;;;44.13;28.75;;;;;;;12.23;68.52;101677.31;4919001;28;20043;-85
2023/01/04 00:40:14;;;;;;;43.97;28.77;;;;;;;12.20;68.86;101677.53;4953148;28;20034;-85
2023/01/04 00:42:39;;;;;;;45.10;27.25;;;;;;;12.15;68.26;101668.88;4953192;28;20538;-85
2023/01/04 00:45:05;;;;;;;47.58;27.75;;;;;;;12.02;68.48;101670.75;4953122;28;20388;-85
2023/01/04 00:47:31;;;;;;;41.35;26.02;;;;;;;12.14;68.75;101680.66;4952819;28;20406;-86
2023/01/04 00:49:56;;;;;;;46.95;27.88;;;;;;;12.00;68.67;101669.03;4952535;29;20023;-85
2023/01/04 00:52:22;;;;;;;47.92;27.98;;;;;;;12.09;69.18;101685.50;4953484;28;20033;-85
2023/01/04 00:54:47;;;;;;;46.05;28.77;;;;;;;12.04;68.77;101676.91;4952733;28;20055;-85
2023/01/04 00:57:12;;;;;;;46.00;26.77;;;;;;;11.97;68.67;101685.41;4952923;28;20082;-84
2023/01/04 00:59:38;;;;;;;43.03;26.58;;;;;;;11.98;69.51;101699.75;4952673;28;20039;-85
2023/01/04 01:02:03;;;;;;;42.75;28.63;;;;;;;12.04;68.96;101693.94;4952682;28;20027;-84
2023/01/04 01:04:29;;;;;;;50.42;28.02;;;;;;;11.93;69.04;101680.34;4952538;28;20031;-84
2023/01/04 01:06:54;;;;;;;57.22;29.83;;;;;;;11.98;69.38;101684.47;4952957;28;20557;-84
2023/01/04 01:09:22;;;;;;;45.50;29.08;;;;;;;12.00;69.31;101693.28;4953215;28;20035;-85
2023/01/04 01:11:48;;;;;;;47.80;30.10;;;;;;;12.05;68.74;101689.41;4952600;28;20031;-85
2023/01/04 01:14:19;;;;;;;42.28;28.40;;;;;;;12.09;68.91;101680.97;4952802;28;20101;-84
2023/01/04 01:16:46;;;;;;;50.90;28.25;;;;;;;12.07;69.04;101692.84;4952565;28;20031;-87
2023/01/04 01:19:11;;;;;;;46.05;27.65;;;;;;;11.99;68.98;101675.38;4953582;28;20039;-85
2023/01/04 01:21:37;;;;;;;50.03;29.70;;;;;;;12.02;68.57;101689.63;4940972;29;20049;-84
2023/01/04 01:24:03;;;;;;;48.03;28.27;;;;;;;11.98;68.87;101689.84;4967363;28;20558;-84
2023/01/04 01:26:29;;;;;;;52.88;25.77;;;;;;;11.95;68.64;101694.59;4965247;28;20035;-84
2023/01/04 01:28:54;;;;;;;44.38;28.23;;;;;;;11.98;68.80;101697.06;4954366;28;20489;-85
2023/01/04 01:31:25;;;;;;;42.08;26.95;;;;;;;11.93;68.69;101702.78;4953447;28;20451;-85
2023/01/04 01:33:53;;;;;;;57.53;29.65;;;;;;;11.91;68.74;101688.53;4953363;28;20118;-85
2023/01/04 01:36:21;;;;;;;51.00;28.55;;;;;;;11.87;68.88;101699.63;4953908;28;20482;-84
2023/01/04 01:38:47;;;;;;;47.83;28.60;;;;;;;11.80;68.57;101682.19;4954223;28;20676;-85
2023/01/04 01:41:25;;;;;;;49.90;27.10;;;;;;;11.80;69.03;101693.81;4955153;28;20031;-84
2023/01/04 01:44:25;;;;;;;45.90;29.02;;;;;;;11.78;68.91;101695.75;4956237;28;20027;-84
2023/01/04 01:46:53;;;;;;;44.03;28.27;;;;;;;11.72;68.86;101685.41;4960768;28;20039;-84
2023/01/04 01:49:24;;;;;;;43.10;26.65;;;;;;;11.68;69.54;101683.84;4970109;28;20082;-85
2023/01/04 01:51:51;;;;;;;42.95;28.13;;;;;;;11.66;69.02;101687.63;4972380;28;20040;-84
2023/01/04 01:54:28;;;;;;;47.88;26.42;;;;;;;11.60;69.25;101688.91;4965413;28;20050;-82
2023/01/04 01:56:56;;;;;;;46.78;29.25;;;;;;;11.59;69.73;101686.34;4956700;29;20038;-79
2023/01/04 01:59:23;;;;;;;49.72;29.08;;;;;;;11.52;69.38;101677.81;4955618;28;20023;-79
2023/01/04 02:01:49;;;;;;;46.78;28.02;;;;;;;11.56;70.13;101684.69;4951894;28;20039;-81
2023/01/04 02:04:15;;;;;;;52.22;29.65;;;;;;;11.47;69.58;101682.63;4952054;28;20043;-80
2023/01/04 02:06:47;;;;;;;45.10;29.13;;;;;;;11.53;69.52;101702.91;4951638;28;20525;-81
2023/01/04 02:09:13;;;;;;;46.30;30.23;;;;;;;11.60;70.11;101699.69;4951687;28;20027;-79
2023/01/04 02:11:38;;;;;;;53.22;31.30;;;;;;;11.46;69.98;101697.94;4951657;28;20031;-79
2023/01/04 02:16:59;;;;;;;56.28;29.75;;;;;;;11.44;70.53;101696.28;4951805;28;20142;-80
2023/01/04 02:19:43;;;;;;;54.95;31.05;;;;;;;11.48;70.23;101705.91;4951566;28;20037;-79
2023/01/04 02:22:25;;;;;;;45.13;28.20;;;;;;;11.48;70.43;101704.09;4951322;28;20520;-79
2023/01/04 02:25:12;;;;;;;48.00;30.15;;;;;;;11.46;69.97;101689.88;4951639;28;20086;-80
2023/01/04 02:27:40;;;;;;;48.67;30.08;;;;;;;11.56;69.95;101697.31;4951543;28;20091;-80
2023/01/04 02:30:24;;;;;;;53.78;29.83;;;;;;;11.49;70.03;101686.09;4951754;28;20059;-81
2023/01/04 02:33:08;;;;;;;53.45;30.02;;;;;;;11.55;69.84;101688.38;4953390;28;20027;-81
2023/01/04 02:35:40;;;;;;;53.80;30.23;;;;;;;11.55;69.54;101690.19;4924432;28;20133;-82
2023/01/04 02:38:38;;;;;;;47.15;28.88;;;;;;;11.39;69.65;101685.00;4955126;28;20024;-80
2023/01/04 02:41:08;;;;;;;52.70;29.05;;;;;;;11.23;70.43;101695.06;4955120;28;20027;-79
2023/01/04 02:46:56;;;;;;;52.05;30.95;;;;;;;11.25;70.70;101703.91;4954967;28;20062;-79
2023/01/04 02:52:07;;;;;;;56.53;32.72;;;;;;;11.19;70.64;101699.78;4954953;28;20086;-81
2023/01/04 02:54:33;;;;;;;54.50;31.42;;;;;;;11.24;70.10;101699.50;4955147;28;20051;-81
2023/01/04 02:57:03;;;;;;;53.67;32.47;;;;;;;11.26;70.71;101711.00;4954640;28;20031;-82
2023/01/04 03:00:02;;;;;;;55.97;32.05;;;;;;;11.18;70.50;101705.28;4954550;28;20027;-80
2023/01/04 03:08:29;;;;;;;63.15;30.60;;;;;;;11.09;70.55;101697.81;4954316;28;20046;-80
2023/01/04 03:11:01;;;;;;;67.30;34.20;;;;;;;11.07;70.52;101694.38;4954264;28;20031;-80
2023/01/04 03:13:40;;;;;;;62.78;34.20;;;;;;;11.03;71.08;101695.53;4954525;28;20027;-81
2023/01/04 03:16:15;;;;;;;61.95;34.53;;;;;;;11.04;70.61;101705.34;4954533;28;20035;-81
2023/01/04 03:18:46;;;;;;;58.25;32.30;;;;;;;11.04;71.02;101705.34;4954300;28;20035;-82
2023/01/04 03:21:14;;;;;;;56.38;33.08;;;;;;;11.02;71.26;101699.19;4954263;28;20027;-81
2023/01/04 03:35:37;;;;;;;60.50;35.95;;;;;;;10.92;70.85;101702.47;4954243;28;20442;-80
2023/01/04 03:50:38;;;;;;;55.30;29.80;;;;;;;11.03;71.20;101715.25;4953917;28;20502;-80
2023/01/04 03:53:06;;;;;;;53.50;31.90;;;;;;;10.98;71.22;101713.84;4953493;28;20030;-80
2023/01/04 03:55:35;;;;;;;51.22;30.02;;;;;;;10.91;71.07;101716.06;4953384;28;20031;-81
2023/01/04 03:58:00;;;;;;;51.55;28.48;;;;;;;10.89;71.72;101724.22;4953597;28;20039;-81
2023/01/04 04:00:26;;;;;;;43.50;27.73;;;;;;;10.89;72.07;101729.59;4953624;28;20038;-81
2023/01/04 04:02:52;;;;;;;58.85;29.70;;;;;;;10.88;72.04;101725.19;4953229;28;20023;-81
2023/01/04 04:10:51;;;;;;;52.35;28.00;;;;;;;10.96;72.50;101739.97;4953491;28;20042;-83
2023/01/04 04:13:16;;;;;;;60.10;28.95;;;;;;;10.99;72.19;101737.94;4952938;28;20027;-80
2023/01/04 04:15:42;;;;;;;57.78;30.63;;;;;;;11.09;71.68;101741.78;4953082;28;20479;-82
2023/01/04 04:18:07;;;;;;;67.95;30.08;;;;;;;11.17;71.94;101747.50;4952939;28;20539;-80
2023/01/04 04:20:33;;;;;;;48.60;27.95;;;;;;;10.99;71.37;101745.16;4953134;28;20118;-79
2023/01/04 04:22:58;;;;;;;54.60;29.63;;;;;;;11.06;71.42;101752.75;4953025;28;20082;-79
2023/01/04 04:25:24;;;;;;;55.70;31.02;;;;;;;11.00;72.32;101753.13;4953091;28;20059;-80
2023/01/04 04:27:49;;;;;;;55.33;30.08;;;;;;;11.13;71.53;101753.22;4952940;28;20471;-81
2023/01/04 04:30:15;;;;;;;50.15;28.25;;;;;;;11.17;71.34;101760.97;4936251;28;20392;-80
2023/01/04 04:32:41;;;;;;;52.15;28.60;;;;;;;11.16;71.50;101766.47;4953476;28;20089;-82
2023/01/04 04:35:07;;;;;;;43.38;26.75;;;;;;;11.18;71.38;101768.09;4952709;28;20039;-79
2023/01/04 04:37:33;;;;;;;59.42;31.02;;;;;;;11.24;71.19;101778.47;4935994;28;20035;-80
2023/01/04 04:39:59;;;;;;;54.13;32.22;;;;;;;11.22;71.27;101757.97;4954019;28;20441;-80
2023/01/04 04:42:25;;;;;;;62.03;33.53;;;;;;;11.29;70.47;101776.31;4953036;28;20111;-80
2023/01/04 04:44:50;;;;;;;59.45;32.10;;;;;;;11.24;70.65;101769.50;4952559;28;20166;-79
2023/01/04 04:47:16;;;;;;;47.30;29.38;;;;;;;11.30;70.55;101771.78;4935024;29;20034;-81
2023/01/04 04:49:41;;;;;;;61.13;27.60;;;;;;;11.38;70.86;101778.41;4952654;28;20027;-79
2023/01/04 04:52:07;;;;;;;41.25;25.50;;;;;;;11.34;70.63;101781.41;4952578;28;20059;-80
2023/01/04 04:54:32;;;;;;;47.60;25.40;;;;;;;11.39;70.08;101784.66;4952665;28;20111;-81
2023/01/04 04:56:58;;;;;;;37.20;23.10;;;;;;;11.28;70.74;101773.75;4952346;28;20031;-80
2023/01/04 04:59:23;;;;;;;36.33;22.05;;;;;;;11.39;70.21;101787.34;4952542;28;20058;-81
2023/01/04 05:01:49;;;;;;;38.08;22.77;;;;;;;11.31;69.71;101778.91;4952463;28;20502;-80
2023/01/04 05:04:15;;;;;;;44.88;22.30;;;;;;;11.30;69.71;101777.19;4952282;28;20035;-79
2023/01/04 05:06:48;;;;;;;39.45;23.38;;;;;;;11.20;70.52;101782.31;4952413;28;20186;-78
2023/01/04 05:09:14;;;;;;;39.92;21.70;;;;;;;11.23;70.75;101770.47;4952324;28;20069;-78
2023/01/04 05:14:25;;;;;;;35.15;21.40;;;;;;;11.13;70.82;101775.59;4953960;28;20077;-79
2023/01/04 05:16:51;;;;;;;41.90;23.33;;;;;;;11.09;71.05;101773.22;4953032;28;20062;-80
2023/01/04 05:19:17;;;;;;;40.90;22.88;;;;;;;11.08;71.37;101787.63;4952744;28;20482;-79
2023/01/04 05:21:42;;;;;;;35.38;21.63;;;;;;;11.06;71.36;101784.19;4952445;28;20035;-79
2023/01/04 05:24:10;;;;;;;45.33;24.23;;;;;;;11.01;71.81;101764.78;4952075;28;20034;-78
2023/01/04 05:26:36;;;;;;;46.80;24.17;;;;;;;11.11;71.82;101782.91;4951939;28;20038;-80
2023/01/04 05:29:01;;;;;;;34.58;22.20;;;;;;;11.16;71.97;101774.53;4951827;28;20491;-81
2023/01/04 05:31:27;;;;;;;38.10;21.85;;;;;;;11.20;71.36;101790.38;4952142;28;20023;-81
2023/01/04 05:33:52;;;;;;;31.23;20.85;;;;;;;11.22;71.49;101776.84;4955098;28;20112;-86
2023/01/04 05:36:17;;;;;;;37.53;23.80;;;;;;;11.25;70.48;101777.47;4952335;28;20019;-80
2023/01/04 05:38:43;;;;;;;36.83;21.25;;;;;;;11.21;70.36;101772.41;4954157;28;20046;-82
2023/01/04 05:42:24;;;;;;;48.65;22.00;;;;;;;11.22;70.66;101774.13;4951771;28;20034;-80
2023/01/04 05:43:54;;;;;;;39.60;20.65;;;;;;;11.18;70.68;101778.88;4951297;28;20446;-81
2023/01/04 05:46:20;;;;;;;31.05;20.55;;;;;;;11.11;71.30;101782.03;4973350;28;20101;-84
2023/01/04 05:48:45;;;;;;;41.90;20.25;;;;;;;11.12;70.55;101783.78;4983747;28;20090;-81
2023/01/04 05:51:11;;;;;;;37.42;21.67;;;;;;;11.08;70.93;101787.63;4966444;28;20051;-79
2023/01/04 05:53:37;;;;;;;39.00;20.38;;;;;;;11.07;71.46;101796.69;4990473;28;20069;-79
2023/01/04 05:56:02;;;;;;;45.22;20.67;;;;;;;11.08;71.06;101793.00;4993766;28;20046;-81
2023/01/04 05:58:27;;;;;;;46.85;23.58;;;;;;;11.10;71.45;101791.09;4994880;28;20033;-85
2023/01/04 06:00:54;;;;;;;40.90;21.70;;;;;;;11.05;71.29;101790.50;4982592;28;20057;-82
2023/01/04 06:03:19;;;;;;;32.92;21.52;;;;;;;11.11;71.59;101808.97;4977866;28;20042;-81
2023/01/04 06:05:52;;;;;;;42.60;22.45;;;;;;;11.13;71.26;101802.50;4958333;29;20024;-81
2023/01/04 06:08:18;;;;;;;43.03;23.13;;;;;;;11.14;71.36;101787.22;4955048;28;20026;-84
2023/01/04 06:10:44;;;;;;;36.55;19.50;;;;;;;11.17;71.63;101790.59;4956258;28;20093;-83
2023/01/04 06:13:09;;;;;;;53.25;23.05;;;;;;;11.25;71.72;101800.88;4957060;28;20027;-84
2023/01/04 06:15:34;;;;;;;39.97;21.73;;;;;;;11.30;71.13;101809.50;4955821;28;20035;-82
2023/01/04 06:18:00;;;;;;;54.08;23.25;;;;;;;11.34;71.08;101801.09;4955875;28;20035;-83
2023/01/04 06:20:25;;;;;;;39.55;20.73;;;;;;;11.42;71.07;101814.06;4955527;28;20039;-84
2023/01/04 06:22:51;;;;;;;36.03;19.48;;;;;;;11.44;70.91;101817.53;4955516;28;20038;-83
2023/01/04 06:25:16;;;;;;;63.30;23.45;;;;;;;11.49;70.84;101826.19;4955614;28;20074;-84
2023/01/04 06:27:42;;;;;;;54.70;25.98;;;;;;;11.39;70.61;101819.66;4955379;28;20129;-83
2023/01/04 06:30:08;;;;;;;58.92;30.42;;;;;;;11.49;70.74;101836.97;4956692;28;20494;-86
2023/01/04 06:32:34;;;;;;;77.53;34.67;;;;;;;11.44;70.55;101833.69;4961528;28;20023;-83
2023/01/04 06:34:59;;;;;;;66.10;38.45;;;;;;;11.32;70.23;101829.97;4961296;28;20030;-83
2023/01/04 06:37:25;;;;;;;82.80;40.58;;;;;;;11.33;69.81;101831.72;4956128;28;20042;-83
2023/01/04 06:39:50;;;;;;;84.82;44.17;;;;;;;11.34;69.89;101851.44;4955086;28;20046;-83
2023/01/04 06:45:01;;;;;;;72.82;39.58;;;;;;;11.23;70.00;101857.50;4876465;29;20049;-84
2023/01/04 06:47:27;;;;;;;84.35;41.60;;;;;;;11.18;70.14;101861.47;4876850;29;20393;-83
2023/01/04 06:49:52;;;;;;;89.78;42.60;;;;;;;11.14;70.42;101851.84;4876447;29;20037;-83
2023/01/04 06:52:18;;;;;;;102.88;39.95;;;;;;;11.13;70.32;101859.06;4876348;29;20071;-85
2023/01/04 06:54:43;;;;;;;94.72;40.72;;;;;;;11.06;70.65;101848.78;4876259;29;20143;-83
2023/01/04 06:57:09;;;;;;;76.10;40.38;;;;;;;11.19;70.47;101868.59;4876359;29;20037;-83
2023/01/04 06:59:34;;;;;;;73.15;40.85;;;;;;;11.19;69.92;101871.28;4876759;29;20041;-83
2023/01/04 07:01:59;;;;;;;92.90;41.85;;;;;;;11.28;69.78;101885.00;4860710;29;20045;-83
2023/01/04 07:04:25;;;;;;;76.57;39.67;;;;;;;11.30;70.15;101882.22;4876705;29;20087;-83
2023/01/04 07:06:50;;;;;;;84.57;39.63;;;;;;;11.34;69.86;101870.28;4876271;29;20060;-83
2023/01/04 07:09:16;;;;;;;84.03;40.05;;;;;;;11.39;69.79;101881.63;4860819;29;20040;-83
2023/01/04 07:11:41;;;;;;;88.28;43.90;;;;;;;11.48;69.54;101870.25;4878502;29;20093;-83
2023/01/04 07:14:07;;;;;;;88.55;42.60;;;;;;;11.58;68.70;101879.47;4877163;29;20521;-83
2023/01/04 07:16:32;;;;;;;96.88;42.33;;;;;;;11.75;68.49;101868.47;4877498;29;20533;-83
2023/01/04 07:18:58;;;;;;;81.22;46.45;;;;;;;11.86;68.54;101884.78;4875885;29;20077;-83
2023/01/04 07:21:25;;;;;;;91.70;47.15;;;;;;;11.91;68.30;101876.41;4894269;28;20035;-83
2023/01/04 07:23:51;;;;;;;92.38;43.35;;;;;;;11.90;67.61;101890.81;4924112;28;20069;-83
2023/01/04 07:26:16;;;;;;;79.25;39.53;;;;;;;11.93;67.50;101886.09;4965543;28;20051;-84
2023/01/04 07:31:25;;;;;;;78.32;41.25;;;;;;;12.11;67.70;101891.25;4954283;28;20050;-83
2023/01/04 07:33:51;;;;;;;70.95;37.17;;;;;;;12.18;67.39;101888.00;4959183;28;20023;-82
2023/01/04 07:36:17;;;;;;;67.93;36.08;;;;;;;12.26;67.08;101882.94;4960410;28;20035;-84
2023/01/04 07:38:42;;;;;;;55.78;33.78;;;;;;;12.36;67.31;101877.78;4955316;28;20113;-83
2023/01/04 07:41:08;;;;;;;63.88;35.55;;;;;;;12.66;66.48;101878.34;4953999;28;20110;-82
2023/01/04 07:43:33;;;;;;;59.67;32.75;;;;;;;12.81;66.35;101879.97;4936486;28;20031;-82
2023/01/04 07:45:59;;;;;;;57.72;31.60;;;;;;;12.89;65.97;101883.00;4954145;28;20034;-83
2023/01/04 07:48:24;;;;;;;65.60;31.13;;;;;;;12.98;65.37;101898.56;4953499;28;20028;-83
2023/01/04 07:50:50;;;;;;;75.57;35.88;;;;;;;13.06;65.20;101893.47;4953106;28;20046;-84
2023/01/04 07:53:15;;;;;;;53.55;32.67;;;;;;;13.19;65.15;101898.00;4953991;28;20027;-83
2023/01/04 07:55:40;;;;;;;69.28;32.05;;;;;;;13.35;64.39;101896.81;4953658;28;20027;-83
2023/01/04 07:58:06;;;;;;;66.90;31.92;;;;;;;13.40;64.09;101896.44;4953643;28;20035;-83
2023/01/04 08:00:31;;;;;;;70.53;33.33;;;;;;;13.35;64.17;101898.63;4953268;28;20081;-83
2023/01/04 08:02:57;;;;;;;69.10;38.25;;;;;;;13.34;63.68;101905.00;4953456;28;20139;-84
2023/01/04 08:05:24;;;;;;;91.38;39.17;;;;;;;13.23;64.22;101904.94;4953349;28;20028;-84
2023/01/04 08:07:50;;;;;;;72.55;37.03;;;;;;;13.39;63.89;101913.66;4953408;28;20483;-84
2023/01/04 08:10:16;;;;;;;58.97;38.30;;;;;;;13.23;63.62;101921.13;4953125;28;20035;-84
2023/01/04 08:12:41;;;;;;;80.07;40.65;;;;;;;13.18;64.30;101916.06;4953126;28;20084;-85
2023/01/04 08:15:07;;;;;;;72.28;38.10;;;;;;;13.06;63.98;101906.97;4953635;28;20115;-82
2023/01/04 08:17:33;;;;;;;78.97;38.63;;;;;;;13.12;64.72;101915.66;4955044;28;20533;-82
2023/01/04 08:20:00;;;;;;;74.80;39.25;;;;;;;13.18;64.62;101916.06;4954657;28;20035;-83
2023/01/04 08:22:25;;;;;;;73.90;37.33;;;;;;;13.31;64.35;101913.34;4953078;28;20034;-84
2023/01/04 08:24:51;;;;;;;91.15;43.58;;;;;;;13.46;64.16;101914.91;4953090;28;20059;-84
2023/01/04 08:27:16;;;;;;;67.10;38.72;;;;;;;13.58;64.04;101904.06;4953294;28;20483;-83
2023/01/04 08:29:42;;;;;;;75.13;35.15;;;;;;;13.70;63.21;101901.47;4953445;28;20447;-83
2023/01/04 08:32:07;;;;;;;82.68;37.00;;;;;;;13.77;63.06;101903.59;4953499;28;20054;-83
2023/01/04 08:34:33;;;;;;;88.65;39.53;;;;;;;13.77;62.75;101900.00;4954988;28;20031;-83
2023/01/04 08:36:58;;;;;;;105.13;41.15;;;;;;;13.74;63.18;101901.09;4956850;28;20033;-82
2023/01/04 08:39:23;;;;;;;69.60;35.80;;;;;;;13.86;62.97;101907.44;4920999;28;20058;-84
2023/01/04 08:41:55;;;;;;;76.47;36.97;;;;;;;13.91;62.91;101916.94;4953834;28;20723;-83
2023/01/04 08:44:22;;;;;;;79.82;32.38;;;;;;;14.11;62.56;101924.41;4953105;28;20101;-83
2023/01/04 08:46:48;;;;;;;83.72;35.60;;;;;;;14.04;62.16;101917.75;4952957;28;20027;-84
2023/01/04 08:49:14;;;;;;;58.60;31.13;;;;;;;14.07;62.21;101922.91;4952718;28;20403;-84
2023/01/04 08:51:41;;;;;;;39.63;19.98;;;;;;;13.96;61.31;101931.00;4952762;28;20035;-83
2023/01/04 08:54:06;;;;;;;25.30;13.88;;;;;;;13.92;60.41;101904.28;4952945;28;20038;-83
2023/01/04 08:56:32;;;;;;;51.10;21.85;;;;;;;14.03;60.75;101918.75;4952515;28;20023;-83
2023/01/04 08:58:57;;;;;;;24.52;14.00;;;;;;;14.05;59.85;101918.59;4953071;28;20035;-83
2023/01/04 09:01:23;;;;;;;26.17;13.95;;;;;;;13.87;60.14;101926.28;4952625;28;20081;-84
2023/01/04 09:03:48;;;;;;;28.90;14.38;;;;;;;13.80;60.12;101925.00;4952689;28;20407;-83
2023/01/04 09:06:15;;;;;;;39.25;15.65;;;;;;;13.85;60.44;101930.06;4960975;28;20486;-83
2023/01/04 09:08:42;;;;;;;26.48;13.32;;;;;;;13.86;59.98;101911.00;4958413;28;20042;-83
2023/01/04 09:11:12;;;;;;;42.58;15.63;;;;;;;13.94;59.65;101915.84;4953691;28;20410;-83
2023/01/04 09:13:38;;;;;;;32.65;16.55;;;;;;;14.02;59.95;101913.44;4963721;28;20030;-83
2023/01/04 09:16:06;;;;;;;31.88;14.27;;;;;;;13.68;60.22;101881.75;4958551;28;20031;-82
2023/01/04 09:18:33;;;;;;;51.78;17.55;;;;;;;13.87;60.42;101910.03;4952362;28;20098;-82
2023/01/04 09:21:01;;;;;;;28.65;15.23;;;;;;;13.89;60.27;101918.88;4952400;28;20479;-84
2023/01/04 09:23:30;;;;;;;30.98;16.88;;;;;;;13.83;60.08;101896.84;4952612;28;20035;-83
2023/01/04 09:25:55;;;;;;;36.90;15.65;;;;;;;13.99;59.97;101911.81;4952044;28;20051;-84
2023/01/04 09:28:21;;;;;;;43.28;15.95;;;;;;;13.94;59.37;101908.56;4935125;28;20031;-83
2023/01/04 09:30:46;;;;;;;32.83;17.08;;;;;;;13.99;59.32;101914.53;4934991;28;20035;-84
2023/01/04 09:33:12;;;;;;;23.15;13.73;;;;;;;13.95;58.92;101907.63;4935415;28;20090;-82
2023/01/04 09:35:37;;;;;;;28.73;14.90;;;;;;;13.77;59.39;101895.47;4953340;28;20035;-84
2023/01/04 09:38:02;;;;;;;29.90;13.73;;;;;;;13.86;59.43;101907.44;4955083;28;20031;-84
2023/01/04 09:40:45;;;;;;;47.58;16.00;;;;;;;13.75;59.45;101908.25;4953480;28;20024;-84
2023/01/04 09:43:18;;;;;;;35.03;16.35;;;;;;;13.66;59.50;101902.66;4947004;28;20034;-83
2023/01/04 09:45:46;;;;;;;30.42;13.80;;;;;;;13.48;60.17;101891.38;4939610;28;20332;-83
2023/01/04 09:48:20;;;;;;;39.58;16.77;;;;;;;13.49;60.22;101887.66;4956224;28;20027;-83
2023/01/04 09:50:51;;;;;;;33.70;15.85;;;;;;;13.53;60.14;101905.41;4956563;28;20122;-82
2023/01/04 09:53:26;;;;;;;35.17;13.75;;;;;;;13.58;60.16;101908.63;4956362;28;20027;-84
2023/01/04 09:55:55;;;;;;;23.52;12.40;;;;;;;13.57;59.88;101901.50;4957674;28;20045;-83
2023/01/04 09:58:27;;;;;;;33.40;14.07;;;;;;;13.61;59.82;101913.78;4960384;28;20089;-82
2023/01/04 10:01:03;;;;;;;36.83;14.77;;;;;;;13.63;59.49;101919.97;4964684;28;20038;-83
2023/01/04 10:03:38;;;;;;;30.83;14.43;;;;;;;13.69;59.75;101924.94;4958625;28;20031;-82
2023/01/04 10:06:08;;;;;;;30.73;14.27;;;;;;;13.56;59.60;101911.44;4980858;28;20075;-83
2023/01/04 10:08:34;;;;;;;35.95;13.70;;;;;;;13.56;59.40;101915.97;4956219;28;20058;-84
2023/01/04 10:11:18;;;;;;;46.08;15.73;;;;;;;13.41;59.83;101912.56;4944800;28;20398;-83
2023/01/04 10:13:58;;;;;;;34.53;13.63;;;;;;;13.43;60.19;101893.53;4961173;28;20083;-84
2023/01/04 10:16:51;;;;;;;37.78;12.73;;;;;;;13.42;58.36;101903.47;4956538;28;20106;-83
2023/01/04 10:19:29;;;;;;;25.33;11.77;;;;;;;13.47;58.41;101905.84;4955971;28;20035;-83
2023/01/04 10:22:05;;;;;;;20.88;11.10;;;;;;;13.40;58.19;101888.34;4955371;28;20027;-82
2023/01/04 10:24:47;;;;;;;28.08;11.85;;;;;;;13.31;58.10;101892.59;4955451;28;20093;-84
2023/01/04 10:27:38;;;;;;;35.72;12.60;;;;;;;13.41;58.04;101900.88;4954800;28;20122;-84
2023/01/04 10:30:24;;;;;;;29.90;14.95;;;;;;;13.49;57.83;101909.28;4937867;28;20031;-82
2023/01/04 10:33:09;;;;;;;29.58;11.52;;;;;;;13.43;57.49;101904.34;4955068;28;20522;-84
2023/01/04 10:35:35;;;;;;;30.75;12.25;;;;;;;13.31;57.12;101894.41;4955557;28;20063;-83
2023/01/04 10:38:09;;;;;;;33.35;10.88;;;;;;;13.37;57.16;101904.78;4956180;28;20027;-83
2023/01/04 10:40:38;;;;;;;27.20;12.18;;;;;;;13.36;57.17;101889.56;4956825;28;20042;-83
2023/01/04 10:43:18;;;;;;;21.60;11.05;;;;;;;13.48;56.99;101896.78;4958203;28;20106;-83
2023/01/04 10:45:58;;;;;;;23.95;11.77;;;;;;;13.42;57.17;101898.06;4954323;28;20399;-84
2023/01/04 10:48:23;;;;;;;39.08;11.30;;;;;;;13.46;56.76;101891.47;4954592;28;20027;-83
2023/01/04 10:50:57;;;;;;;32.00;12.32;;;;;;;13.47;56.83;101895.91;4954520;28;20042;-84
2023/01/04 10:53:43;;;;;;;28.40;10.20;;;;;;;13.30;56.50;101898.13;4954133;28;20035;-82
2023/01/04 10:56:28;;;;;;;43.72;12.27;;;;;;;13.40;56.83;101900.03;4954326;28;20047;-82
2023/01/04 10:58:54;;;;;;;40.20;13.02;;;;;;;13.46;56.61;101904.97;4956227;28;20054;-82
2023/01/04 11:01:28;;;;;;;23.42;10.85;;;;;;;13.50;56.51;101900.22;4938785;28;20411;-84
2023/01/04 11:03:56;;;;;;;20.15;9.90;;;;;;;13.55;56.10;101903.44;4954641;28;20082;-83
2023/01/04 11:06:32;;;;;;;34.38;10.88;;;;;;;13.37;56.26;101888.56;4954261;28;20063;-82
2023/01/04 11:09:13;;;;;;;32.75;9.40;;;;;;;13.21;56.59;101909.59;4954274;28;20023;-84
2023/01/04 11:11:44;;;;;;;16.67;10.20;;;;;;;13.31;57.13;101910.63;4954544;28;20031;-83
2023/01/04 11:14:11;;;;;;;43.83;12.13;;;;;;;13.44;56.81;101903.38;4954310;28;20031;-82
2023/01/04 11:16:40;;;;;;;18.05;10.32;;;;;;;13.33;56.88;101895.19;4954749;28;20086;-82
2023/01/04 11:19:09;;;;;;;21.23;9.98;;;;;;;13.28;56.95;101891.94;4954099;28;20042;-83
2023/01/04 11:21:50;;;;;;;35.17;12.15;;;;;;;13.41;57.03;101906.28;4954102;28;20074;-82
2023/01/04 11:24:16;;;;;;;31.00;12.40;;;;;;;13.48;56.94;101896.78;4937921;28;20485;-83
2023/01/04 11:26:45;;;;;;;38.92;12.10;;;;;;;13.56;56.96;101907.88;4954341;28;20091;-84
2023/01/04 11:29:39;;;;;;;35.88;11.75;;;;;;;13.54;57.03;101908.00;4953818;28;20031;-82
2023/01/04 11:32:14;;;;;;;20.23;11.20;;;;;;;13.43;57.11;101896.22;4877045;29;20037;-82
2023/01/04 11:34:52;;;;;;;21.65;10.90;;;;;;;13.37;57.37;101897.53;4877603;29;20067;-82
2023/01/04 11:37:27;;;;;;;19.42;10.73;;;;;;;13.19;57.66;101873.69;4878886;29;20105;-83
2023/01/04 11:40:17;;;;;;;31.83;11.82;;;;;;;13.35;57.94;101895.94;4880669;29;20097;-82
2023/01/04 11:42:45;;;;;;;19.52;10.50;;;;;;;13.36;57.89;101903.06;4885559;29;20041;-82
2023/01/04 11:45:25;;;;;;;34.40;12.52;;;;;;;13.24;57.81;101895.84;4883340;29;20123;-82
2023/01/04 11:47:59;;;;;;;40.83;11.95;;;;;;;13.30;57.70;101893.56;4877407;29;20044;-83
2023/01/04 11:50:37;;;;;;;23.23;11.38;;;;;;;13.35;57.90;101895.94;4877653;29;20045;-82
2023/01/04 11:53:26;;;;;;;29.63;11.95;;;;;;;13.31;57.56;101894.41;4876971;29;20029;-83
2023/01/04 11:56:06;;;;;;;26.27;10.18;;;;;;;13.30;58.15;101893.56;4877824;29;20084;-82
2023/01/04 11:58:31;;;;;;;119.97;18.83;;;;;;;13.40;57.78;101891.91;4877654;29;20061;-84
2023/01/04 12:00:57;;;;;;;18.42;10.27;;;;;;;13.25;57.47;101879.53;4877926;29;20590;-83
2023/01/04 12:03:33;;;;;;;34.35;10.75;;;;;;;13.16;57.86;101890.13;4877574;29;20036;-84
2023/01/04 12:05:59;;;;;;;31.20;11.73;;;;;;;13.14;57.85;101902.88;4861778;29;20219;-83
2023/01/04 12:08:31;;;;;;;30.13;12.93;;;;;;;13.22;57.86;101897.78;4895772;29;20603;-83
2023/01/04 12:10:59;;;;;;;20.45;9.55;;;;;;;13.20;57.62;101897.03;4956343;28;20113;-83